createdAt,value
2022-12-18T00:01:35.358Z,12.55
2022-12-18T00:04:06.399Z,12.27
2022-12-18T00:06:36.426Z,12.77
2022-12-18T00:09:06.115Z,11.55
2022-12-18T00:11:33.063Z,12.05
2022-12-18T00:14:03.042Z,12.65
2022-12-18T00:16:38.209Z,12.07
2022-12-18T00:19:16.097Z,13.07
2022-12-18T00:21:43.899Z,12.20
2022-12-18T00:24:11.930Z,12.30
2022-12-18T00:26:43.119Z,12.45
2022-12-18T00:29:17.236Z,9.52
2022-12-18T00:31:48.479Z,12.10
2022-12-18T00:34:17.767Z,12.25
2022-12-18T00:36:48.519Z,13.77
2022-12-18T00:39:15.279Z,11.88
2022-12-18T00:42:03.480Z,14.50
2022-12-18T00:44:32.603Z,12.70
2022-12-18T00:46:59.261Z,12.63
2022-12-18T00:49:26.015Z,12.55
2022-12-18T00:52:02.054Z,13.88
2022-12-18T00:54:31.205Z,14.18
2022-12-18T00:57:07.157Z,12.45
2022-12-18T00:59:38.754Z,13.75
2022-12-18T01:02:05.420Z,12.68
2022-12-18T01:04:37.364Z,13.95
2022-12-18T01:07:08.092Z,14.45
2022-12-18T01:09:39.765Z,15.18
2022-12-18T01:12:08.222Z,13.00
2022-12-18T01:14:34.934Z,13.07
2022-12-18T01:17:03.655Z,13.32
2022-12-18T01:19:34.619Z,13.35
2022-12-18T01:22:01.234Z,12.48
2022-12-18T01:24:27.904Z,12.55
2022-12-18T01:26:56.760Z,12.13
2022-12-18T01:29:25.865Z,13.25
2022-12-18T01:31:55.389Z,13.40
2022-12-18T01:34:23.571Z,12.82
2022-12-18T01:36:50.214Z,13.52
2022-12-18T01:39:18.815Z,13.07
2022-12-18T01:42:04.975Z,12.18
2022-12-18T01:45:10.567Z,12.60
2022-12-18T01:47:51.647Z,11.80
2022-12-18T01:50:28.067Z,12.07
2022-12-18T01:53:12.032Z,11.75
2022-12-18T01:55:48.444Z,11.20
2022-12-18T01:58:18.993Z,12.05
2022-12-18T02:00:46.065Z,11.27
2022-12-18T02:03:15.728Z,10.68
2022-12-18T02:05:54.228Z,11.88
2022-12-18T02:08:44.746Z,12.00
2022-12-18T02:11:33.616Z,11.88
2022-12-18T02:14:19.069Z,11.60
2022-12-18T02:17:08.495Z,10.68
2022-12-18T02:19:58.136Z,11.48
2022-12-18T02:22:27.874Z,12.20
2022-12-18T02:25:30.115Z,13.25
2022-12-18T02:30:32.807Z,10.43
2022-12-18T02:33:02.744Z,10.60
2022-12-18T02:35:33.992Z,10.88
2022-12-18T02:38:03.912Z,12.15
2022-12-18T02:40:33.675Z,11.43
2022-12-18T02:43:09.885Z,11.02
2022-12-18T02:45:47.505Z,11.07
2022-12-18T02:48:16.888Z,12.95
2022-12-18T02:51:09.188Z,11.60
2022-12-18T02:53:46.491Z,7.97
2022-12-18T02:56:27.462Z,10.68
2022-12-18T02:59:16.882Z,8.13
2022-12-18T03:02:12.636Z,9.50
2022-12-18T03:04:45.075Z,11.10
2022-12-18T03:07:19.480Z,10.55
2022-12-18T03:09:51.371Z,10.07
2022-12-18T03:12:38.672Z,11.45
2022-12-18T03:15:20.276Z,11.07
2022-12-18T03:18:02.382Z,10.80
2022-12-18T03:20:35.642Z,10.07
2022-12-18T03:23:13.062Z,9.52
2022-12-18T03:25:47.327Z,10.07
2022-12-18T03:28:19.911Z,9.85
2022-12-18T03:30:57.946Z,10.45
2022-12-18T03:33:55.452Z,10.82
2022-12-18T03:36:28.598Z,9.32
2022-12-18T03:38:55.447Z,11.25
2022-12-18T03:41:34.502Z,9.73
2022-12-18T03:44:34.752Z,10.90
2022-12-18T03:47:32.439Z,10.95
2022-12-18T03:50:18.903Z,10.70
2022-12-18T03:52:53.270Z,10.40
2022-12-18T03:55:23.483Z,10.02
2022-12-18T03:57:57.747Z,9.02
2022-12-18T04:00:29.668Z,10.63
2022-12-18T04:03:06.848Z,11.23
2022-12-18T04:05:45.040Z,10.40
2022-12-18T04:08:13.655Z,10.35
2022-12-18T04:10:46.148Z,10.13
2022-12-18T04:13:30.573Z,7.63
2022-12-18T04:15:59.479Z,9.90
2022-12-18T04:18:27.235Z,11.70
2022-12-18T04:20:54.744Z,10.85
2022-12-18T04:23:23.266Z,10.25
2022-12-18T04:25:51.041Z,11.15
2022-12-18T04:28:33.324Z,13.47
2022-12-18T04:31:00.169Z,11.32
2022-12-18T04:33:27.956Z,10.65
2022-12-18T04:35:54.634Z,12.10
2022-12-18T04:38:21.299Z,11.63
2022-12-18T04:40:53.911Z,10.68
2022-12-18T04:43:28.273Z,11.15
2022-12-18T04:46:01.671Z,13.02
2022-12-18T04:48:28.279Z,13.23
2022-12-18T04:50:57.290Z,12.23
2022-12-18T04:53:26.731Z,10.32
2022-12-18T04:56:04.943Z,12.02
2022-12-18T04:58:40.362Z,12.07
2022-12-18T05:01:10.434Z,11.85
2022-12-18T05:03:40.472Z,12.93
2022-12-18T05:06:11.627Z,12.00
2022-12-18T05:08:38.255Z,10.13
2022-12-18T05:11:06.291Z,12.35
2022-12-18T05:13:33.907Z,11.68
2022-12-18T05:16:01.821Z,12.77
2022-12-18T05:18:31.705Z,13.57
2022-12-18T05:21:01.819Z,12.45
2022-12-18T05:23:30.865Z,12.15
2022-12-18T05:26:02.814Z,10.63
2022-12-18T05:28:31.539Z,11.38
2022-12-18T05:31:01.391Z,14.27
2022-12-18T05:33:31.755Z,12.90
2022-12-18T05:36:00.928Z,12.20
2022-12-18T05:38:31.222Z,11.77
2022-12-18T05:41:00.387Z,12.23
2022-12-18T05:43:28.483Z,12.27
2022-12-18T05:45:59.718Z,11.65
2022-12-18T05:48:26.378Z,12.27
2022-12-18T05:50:53.079Z,12.18
2022-12-18T05:53:22.689Z,15.77
2022-12-18T05:55:49.571Z,11.50
2022-12-18T05:58:17.120Z,11.55
2022-12-18T06:00:46.497Z,13.43
2022-12-18T06:03:14.286Z,11.90
2022-12-18T06:05:46.566Z,11.95
2022-12-18T06:08:16.676Z,13.18
2022-12-18T06:10:50.179Z,12.45
2022-12-18T06:13:19.788Z,12.65
2022-12-18T06:15:46.706Z,14.13
2022-12-18T06:18:13.522Z,11.88
2022-12-18T06:20:42.691Z,13.63
2022-12-18T06:23:10.317Z,15.40
2022-12-18T06:25:39.330Z,13.32
2022-12-18T06:28:08.491Z,13.45
2022-12-18T06:30:35.212Z,15.35
2022-12-18T06:33:01.869Z,13.18
2022-12-18T06:35:33.664Z,14.35
2022-12-18T06:38:02.467Z,12.95
2022-12-18T06:40:29.319Z,12.80
2022-12-18T06:42:59.960Z,12.90
2022-12-18T06:45:26.682Z,13.30
2022-12-18T06:47:54.422Z,12.93
2022-12-18T06:50:23.167Z,14.18
2022-12-18T06:52:52.399Z,12.43
2022-12-18T06:55:21.450Z,13.13
2022-12-18T06:57:50.478Z,12.95
2022-12-18T07:00:21.959Z,13.57
2022-12-18T07:02:48.645Z,12.75
2022-12-18T07:05:15.415Z,13.65
2022-12-18T07:07:42.060Z,12.57
2022-12-18T07:10:12.930Z,12.95
2022-12-18T07:12:39.512Z,12.75
2022-12-18T07:15:08.881Z,13.93
2022-12-18T07:17:38.063Z,12.55
2022-12-18T07:20:07.604Z,12.90
2022-12-18T07:22:34.200Z,14.25
2022-12-18T07:25:00.855Z,14.07
2022-12-18T07:27:27.474Z,14.15
2022-12-18T07:29:54.524Z,12.02
2022-12-18T07:32:23.267Z,13.25
2022-12-18T07:34:51.877Z,12.88
2022-12-18T07:37:22.843Z,13.40
2022-12-18T07:39:53.407Z,11.47
2022-12-18T07:42:34.224Z,15.35
2022-12-18T07:45:01.996Z,17.27
2022-12-18T07:47:29.593Z,17.33
2022-12-18T07:50:00.599Z,17.55
2022-12-18T07:52:30.235Z,16.05
2022-12-18T07:54:59.581Z,15.45
2022-12-18T08:00:13.517Z,14.93
2022-12-18T08:02:40.277Z,16.20
2022-12-18T08:05:07.170Z,15.45
2022-12-18T08:07:33.960Z,15.90
2022-12-18T08:10:00.542Z,15.30
2022-12-18T08:12:27.171Z,15.82
2022-12-18T08:14:53.819Z,16.95
2022-12-18T08:17:21.097Z,14.55
2022-12-18T08:19:47.700Z,14.75
2022-12-18T08:22:14.344Z,14.70
2022-12-18T08:24:40.952Z,14.35
2022-12-18T08:29:54.209Z,15.38
2022-12-18T08:32:20.931Z,16.13
2022-12-18T08:34:47.641Z,15.05
2022-12-18T08:37:14.241Z,15.43
2022-12-18T08:39:40.904Z,17.08
2022-12-18T08:42:26.202Z,28.58
2022-12-18T08:44:52.840Z,26.13
2022-12-18T08:47:20.876Z,21.15
2022-12-18T08:49:47.489Z,18.60
2022-12-18T08:52:14.112Z,17.92
2022-12-18T08:54:40.792Z,33.35
2022-12-18T08:57:07.694Z,29.00
2022-12-18T08:59:34.320Z,23.30
2022-12-18T09:02:01.279Z,19.63
2022-12-18T09:04:28.165Z,16.30
2022-12-18T09:06:56.129Z,17.17
2022-12-18T09:09:22.959Z,16.25
2022-12-18T09:11:49.568Z,17.60
2022-12-18T09:14:16.207Z,17.00
2022-12-18T09:16:43.358Z,15.90
2022-12-18T09:19:10.876Z,18.10
2022-12-18T09:21:41.204Z,16.33
2022-12-18T09:24:14.427Z,22.35
2022-12-18T09:26:41.107Z,42.92
2022-12-18T09:29:10.171Z,39.15
2022-12-18T09:31:37.774Z,29.38
2022-12-18T09:34:04.397Z,21.63
2022-12-18T09:36:30.980Z,16.52
2022-12-18T09:38:57.643Z,16.33
2022-12-18T09:41:45.216Z,15.32
2022-12-18T09:44:19.957Z,14.93
2022-12-18T09:47:13.564Z,17.25
2022-12-18T09:49:44.334Z,14.70
2022-12-18T09:52:20.573Z,15.30
2022-12-18T09:55:06.716Z,14.52
2022-12-18T09:57:36.502Z,14.00
2022-12-18T10:00:17.115Z,14.43
2022-12-18T10:02:43.890Z,15.38
2022-12-18T10:05:17.856Z,16.67
2022-12-18T10:08:02.069Z,15.90
2022-12-18T10:10:34.859Z,15.57
2022-12-18T10:13:57.686Z,19.63
2022-12-18T10:19:40.040Z,26.33
2022-12-18T10:22:36.477Z,17.80
2022-12-18T10:25:06.883Z,16.65
2022-12-18T10:27:33.636Z,17.90
2022-12-18T10:30:02.019Z,18.45
2022-12-18T10:32:31.050Z,18.35
2022-12-18T10:35:00.680Z,17.95
2022-12-18T10:37:30.734Z,18.95
2022-12-18T10:40:16.655Z,18.55
2022-12-18T10:42:45.062Z,20.17
2022-12-18T10:45:13.554Z,18.92
2022-12-18T10:47:49.301Z,17.52
2022-12-18T10:51:01.368Z,14.88
2022-12-18T10:53:25.508Z,15.02
2022-12-18T10:55:54.820Z,15.38
2022-12-18T10:58:34.789Z,15.57
2022-12-18T11:01:14.560Z,16.25
2022-12-18T11:03:42.600Z,15.40
2022-12-18T11:06:12.440Z,17.38
2022-12-18T11:08:40.404Z,20.45
2022-12-18T11:11:24.700Z,22.85
2022-12-18T11:14:00.532Z,18.73
2022-12-18T11:16:28.728Z,21.25
2022-12-18T11:19:22.287Z,18.38
2022-12-18T11:21:49.769Z,19.50
2022-12-18T11:24:30.165Z,17.75
2022-12-18T11:27:01.266Z,19.98
2022-12-18T11:29:46.424Z,17.65
2022-12-18T11:32:16.425Z,17.40
2022-12-18T11:34:48.180Z,16.75
2022-12-18T11:37:20.051Z,15.73
2022-12-18T11:39:55.355Z,17.40
2022-12-18T11:42:45.463Z,19.10
2022-12-18T11:45:12.235Z,16.90
2022-12-18T11:47:59.975Z,18.77
2022-12-18T11:50:47.510Z,18.27
2022-12-18T11:53:14.354Z,16.73
2022-12-18T11:55:59.867Z,15.25
2022-12-18T11:58:59.394Z,18.73
2022-12-18T12:01:56.760Z,16.65
2022-12-18T12:04:47.890Z,17.95
2022-12-18T12:07:33.688Z,18.23
2022-12-18T12:10:19.524Z,21.13
2022-12-18T12:13:01.675Z,17.10
2022-12-18T12:15:36.680Z,17.08
2022-12-18T12:18:22.068Z,15.98
2022-12-18T12:20:54.625Z,15.40
2022-12-18T12:23:29.968Z,16.88
2022-12-18T12:26:01.095Z,15.48
2022-12-18T12:28:51.756Z,13.02
2022-12-18T12:31:36.687Z,16.63
2022-12-18T12:34:25.330Z,16.70
2022-12-18T12:37:16.549Z,15.55
2022-12-18T12:39:46.023Z,16.42
2022-12-18T12:42:43.716Z,14.52
2022-12-18T12:45:24.333Z,15.02
2022-12-18T12:47:52.615Z,13.98
2022-12-18T12:50:22.204Z,15.10
2022-12-18T12:52:56.714Z,15.20
2022-12-18T12:55:27.683Z,14.20
2022-12-18T12:58:09.762Z,15.80
2022-12-18T13:00:51.131Z,15.07
2022-12-18T13:03:51.764Z,21.08
2022-12-18T13:06:51.444Z,19.58
2022-12-18T13:09:18.590Z,17.25
2022-12-18T13:12:06.715Z,18.48
2022-12-18T13:14:39.220Z,18.77
2022-12-18T13:17:21.161Z,18.48
2022-12-18T13:20:05.228Z,19.33
2022-12-18T13:23:01.252Z,17.02
2022-12-18T13:25:32.935Z,14.93
2022-12-18T13:28:16.917Z,16.05
2022-12-18T13:30:49.327Z,15.38
2022-12-18T13:33:23.110Z,16.73
2022-12-18T13:35:54.352Z,16.35
2022-12-18T13:38:33.947Z,15.82
2022-12-18T13:41:21.810Z,17.50
2022-12-18T13:44:12.152Z,16.88
2022-12-18T13:46:44.251Z,16.15
2022-12-18T13:49:13.619Z,17.13
2022-12-18T13:51:47.512Z,16.33
2022-12-18T13:54:21.432Z,18.23
2022-12-18T13:56:49.923Z,20.02
2022-12-18T13:59:27.754Z,18.05
2022-12-18T14:01:59.696Z,16.05
2022-12-18T14:04:31.408Z,17.52
2022-12-18T14:07:08.197Z,16.35
2022-12-18T14:09:44.151Z,16.88
2022-12-18T14:12:43.827Z,15.95
2022-12-18T14:15:45.274Z,14.80
2022-12-18T14:18:18.271Z,16.27
2022-12-18T14:20:50.728Z,16.80
2022-12-18T14:23:39.887Z,15.55
2022-12-18T14:26:29.777Z,18.05
2022-12-18T14:29:29.576Z,15.95
2022-12-18T14:32:19.200Z,16.05
2022-12-18T14:34:51.229Z,16.20
2022-12-18T14:37:22.558Z,16.20
2022-12-18T14:40:00.124Z,16.73
2022-12-18T14:42:30.113Z,17.15
2022-12-18T14:45:41.525Z,16.83
2022-12-18T14:48:23.059Z,16.75
2022-12-18T14:51:03.265Z,18.23
2022-12-18T14:53:36.951Z,17.58
2022-12-18T14:56:11.045Z,17.10
2022-12-18T14:58:37.812Z,17.70
2022-12-18T15:01:04.677Z,17.80
2022-12-18T15:03:32.418Z,16.70
2022-12-18T15:06:17.089Z,16.58
2022-12-18T15:08:44.013Z,16.65
2022-12-18T15:11:34.106Z,22.15
2022-12-18T15:14:01.624Z,25.17
2022-12-18T15:16:28.447Z,26.58
2022-12-18T15:18:55.265Z,22.63
2022-12-18T15:21:22.197Z,24.67
2022-12-18T15:23:52.175Z,23.65
2022-12-18T15:26:21.474Z,23.80
2022-12-18T15:28:53.705Z,24.40
2022-12-18T15:31:30.198Z,24.15
2022-12-18T15:33:56.833Z,26.10
2022-12-18T15:36:26.456Z,22.05
2022-12-18T15:39:02.201Z,28.83
2022-12-18T15:41:34.846Z,41.78
2022-12-18T15:44:03.600Z,26.70
2022-12-18T15:46:31.594Z,21.80
2022-12-18T15:49:02.165Z,22.70
2022-12-18T15:51:35.558Z,20.88
2022-12-18T15:54:04.923Z,19.02
2022-12-18T15:57:10.750Z,20.80
2022-12-18T15:59:37.398Z,19.83
2022-12-18T16:02:17.941Z,20.10
2022-12-18T16:04:44.856Z,18.85
2022-12-18T16:07:16.224Z,20.20
2022-12-18T16:09:51.391Z,19.92
2022-12-18T16:12:22.321Z,18.55
2022-12-18T16:14:49.525Z,17.52
2022-12-18T16:17:16.746Z,19.10
2022-12-18T16:19:43.608Z,18.83
2022-12-18T16:22:21.912Z,18.55
2022-12-18T16:24:49.077Z,18.10
2022-12-18T16:27:15.782Z,20.20
2022-12-18T16:29:42.419Z,18.55
2022-12-18T16:32:21.282Z,18.73
2022-12-18T16:34:48.283Z,19.55
2022-12-18T16:37:16.608Z,18.38
2022-12-18T16:39:44.316Z,20.20
2022-12-18T16:42:15.217Z,20.17
2022-12-18T16:44:42.122Z,20.10
2022-12-18T16:47:08.851Z,18.13
2022-12-18T16:49:36.914Z,18.98
2022-12-18T16:52:08.088Z,19.70
2022-12-18T16:54:36.476Z,18.75
2022-12-18T16:57:05.176Z,19.83
2022-12-18T16:59:31.840Z,18.83
2022-12-18T17:01:58.858Z,17.65
2022-12-18T17:04:25.619Z,19.52
2022-12-18T17:06:54.724Z,19.52
2022-12-18T17:09:30.708Z,21.02
2022-12-18T17:11:57.308Z,22.45
2022-12-18T17:14:25.119Z,21.88
2022-12-18T17:17:19.146Z,20.67
2022-12-18T17:19:39.597Z,19.92
2022-12-18T17:22:07.930Z,21.25
2022-12-18T17:24:35.511Z,19.25
2022-12-18T17:27:03.411Z,19.02
2022-12-18T17:29:30.747Z,40.55
2022-12-18T17:31:58.036Z,30.45
2022-12-18T17:34:27.317Z,25.77
2022-12-18T17:36:54.044Z,23.90
2022-12-18T17:39:21.317Z,27.17
2022-12-18T17:41:48.763Z,24.80
2022-12-18T17:44:16.921Z,25.00
2022-12-18T17:46:44.484Z,36.55
2022-12-18T17:49:11.647Z,27.40
2022-12-18T17:51:39.107Z,30.15
2022-12-18T17:54:06.374Z,27.27
2022-12-18T17:56:35.648Z,31.17
2022-12-18T17:59:06.863Z,25.05
2022-12-18T18:01:33.767Z,27.40
2022-12-18T18:04:01.883Z,24.10
2022-12-18T18:06:30.959Z,23.45
2022-12-18T18:09:00.100Z,22.35
2022-12-18T18:11:52.051Z,26.90
2022-12-18T18:14:21.212Z,26.25
2022-12-18T18:16:54.340Z,20.55
2022-12-18T18:21:51.905Z,18.40
2022-12-18T18:24:23.316Z,18.88
2022-12-18T18:26:53.487Z,19.77
2022-12-18T18:29:27.928Z,20.35
2022-12-18T18:31:58.300Z,20.15
2022-12-18T18:34:30.596Z,20.77
2022-12-18T18:36:59.048Z,19.23
2022-12-18T18:39:28.310Z,20.02
2022-12-18T18:41:57.378Z,21.33
2022-12-18T18:44:26.548Z,21.88
2022-12-18T18:46:57.985Z,21.02
2022-12-18T18:49:34.708Z,20.70
2022-12-18T18:52:03.732Z,18.85
2022-12-18T18:54:30.990Z,20.90
2022-12-18T18:57:19.837Z,20.38
2022-12-18T18:59:49.424Z,22.20
2022-12-18T19:02:17.364Z,20.05
2022-12-18T19:04:47.104Z,21.90
2022-12-18T19:07:29.908Z,22.30
2022-12-18T19:10:05.112Z,23.60
2022-12-18T19:12:51.898Z,28.65
2022-12-18T19:15:18.602Z,24.00
2022-12-18T19:17:47.957Z,27.02
2022-12-18T19:20:15.551Z,22.77
2022-12-18T19:22:46.985Z,28.30
2022-12-18T19:25:23.505Z,23.67
2022-12-18T19:27:55.121Z,25.15
2022-12-18T19:30:21.823Z,24.58
2022-12-18T19:32:50.881Z,28.80
2022-12-18T19:35:19.651Z,22.92
2022-12-18T19:37:49.313Z,20.85
2022-12-18T19:40:18.848Z,19.98
2022-12-18T19:42:45.856Z,20.55
2022-12-18T19:45:16.335Z,21.52
2022-12-18T19:47:44.493Z,23.38
2022-12-18T19:50:13.661Z,20.38
2022-12-18T19:52:40.578Z,20.75
2022-12-18T19:55:08.948Z,23.02
2022-12-18T19:57:39.603Z,19.58
2022-12-18T20:00:14.042Z,21.85
2022-12-18T20:02:55.342Z,19.98
2022-12-18T20:05:25.287Z,19.30
2022-12-18T20:07:52.655Z,21.52
2022-12-18T20:10:19.939Z,19.73
2022-12-18T20:12:51.715Z,20.77
2022-12-18T20:15:23.137Z,21.52
2022-12-18T20:17:50.180Z,20.77
2022-12-18T20:20:17.258Z,21.85
2022-12-18T20:22:45.139Z,20.55
2022-12-18T20:25:14.419Z,21.35
2022-12-18T20:27:41.095Z,20.08
2022-12-18T20:30:10.470Z,20.05
2022-12-18T20:32:39.516Z,20.27
2022-12-18T20:35:09.029Z,22.92
2022-12-18T20:37:37.836Z,21.05
2022-12-18T20:40:13.066Z,22.40
2022-12-18T20:42:44.983Z,21.73
2022-12-18T20:45:11.628Z,22.95
2022-12-18T20:47:40.448Z,20.58
2022-12-18T20:50:09.971Z,23.63
2022-12-18T20:52:39.100Z,21.02
2022-12-18T20:55:09.317Z,22.10
2022-12-18T20:57:38.984Z,22.13
2022-12-18T21:00:06.790Z,21.40
2022-12-18T21:02:37.517Z,21.50
2022-12-18T21:05:07.041Z,22.80
2022-12-18T21:07:41.782Z,24.10
2022-12-18T21:10:10.887Z,21.85
2022-12-18T21:12:58.188Z,22.60
2022-12-18T21:15:30.728Z,22.00
2022-12-18T21:17:57.381Z,22.25
2022-12-18T21:20:25.098Z,23.60
2022-12-18T21:22:52.214Z,23.17
2022-12-18T21:25:24.532Z,23.50
2022-12-18T21:27:51.122Z,22.77
2022-12-18T21:30:20.804Z,22.80
2022-12-18T21:32:47.474Z,22.23
2022-12-18T21:35:14.143Z,24.42
2022-12-18T21:37:40.771Z,24.02
2022-12-18T21:40:10.438Z,22.98
2022-12-18T21:42:56.882Z,21.10
2022-12-18T21:45:23.512Z,22.10
2022-12-18T21:47:50.205Z,21.58
2022-12-18T21:50:20.139Z,24.10
2022-12-18T21:52:47.378Z,23.58
2022-12-18T21:55:14.000Z,22.95
2022-12-18T21:57:41.988Z,24.10
2022-12-18T22:00:12.523Z,24.58
2022-12-18T22:02:46.458Z,23.40
2022-12-18T22:05:13.195Z,24.30
2022-12-18T22:07:39.974Z,23.35
2022-12-18T22:10:07.190Z,23.58
2022-12-18T22:12:43.533Z,23.33
2022-12-18T22:15:21.653Z,23.00
2022-12-18T22:17:50.064Z,23.40
2022-12-18T22:20:19.924Z,23.92
2022-12-18T22:22:48.096Z,22.10
2022-12-18T22:25:15.984Z,22.83
2022-12-18T22:27:42.619Z,23.33
2022-12-18T22:30:14.327Z,22.90
2022-12-18T22:32:44.030Z,23.75
2022-12-18T22:35:15.963Z,22.90
2022-12-18T22:37:45.399Z,24.40
2022-12-18T22:40:23.686Z,23.52
2022-12-18T22:42:50.826Z,24.42
2022-12-18T22:45:19.531Z,23.67
2022-12-18T22:47:46.115Z,23.23
2022-12-18T22:50:16.322Z,22.88
2022-12-18T22:52:47.985Z,23.65
2022-12-18T22:55:21.994Z,22.50
2022-12-18T22:57:51.331Z,22.20
2022-12-18T23:00:20.757Z,22.52
2022-12-18T23:02:59.361Z,23.50
2022-12-18T23:05:30.250Z,22.63
2022-12-18T23:07:57.626Z,22.92
2022-12-18T23:10:27.384Z,22.05
2022-12-18T23:12:54.140Z,22.60
2022-12-18T23:15:26.056Z,23.88
2022-12-18T23:17:56.127Z,21.20
2022-12-18T23:20:25.294Z,23.02
2022-12-18T23:22:51.917Z,22.20
2022-12-18T23:25:19.273Z,22.70
2022-12-18T23:27:46.111Z,22.40
2022-12-18T23:30:13.120Z,23.02
2022-12-18T23:32:39.918Z,21.65
2022-12-18T23:35:09.397Z,20.75
2022-12-18T23:37:58.937Z,22.52
2022-12-18T23:40:27.700Z,22.15
2022-12-18T23:42:54.389Z,22.60
2022-12-18T23:45:21.005Z,23.48
2022-12-18T23:47:50.906Z,21.52
2022-12-18T23:50:29.116Z,22.77
2022-12-18T23:52:57.033Z,22.33
2022-12-18T23:55:28.806Z,22.65
2022-12-18T23:57:55.564Z,21.38
